Caratinga, Brazil
Current Conditions -  °F | °C
As of 6:00 PM on Thursday 18 Dec 2014 (Local Time) from SBIP Reporting Station
Clear Clear  
Wind Chill: 90°   Ceiling: Unl
Heat Index: 92°   Visibility: 6mi
Dew Point: 66°   Wind: 9mph
Humidity: 46%   Direction: 20°NNE
Pressure: 29.77"   Gusts: NA
Location:  19.79°S, 42.14°W
Report Text: SBIP 182000Z 02008KT CAVOK 32/19 Q1008
Loading
Personal Weather Stations






























Interactive Weather Map New forecast layout! Learn more

10-Day Weather Forecast

Advertisements
Track Severe Weather on mobile